Wilbur Observed Data For Previous 48 Hours

Caption
Day and Hour Reservoir Elevation (behind dam)* Tailwater Elevation (below dam)* Average Hourly Discharge*
5/24/2019 2 AM EDT 1,648.28 1,582.75 245
5/24/2019 3 AM EDT 1,648.00 1,582.73 240
5/24/2019 4 AM EDT 1,647.70 1,582.73 240
5/24/2019 5 AM EDT 1,647.41 1,582.71 235
5/24/2019 6 AM EDT 1,647.14 1,582.70 235
5/24/2019 7 AM EDT 1,648.29 1,582.74 237
5/24/2019 8 AM EDT 1,649.16 1,582.78 247
5/24/2019 9 AM EDT 1,648.90 1,582.72 250
5/24/2019 10 AM EDT 1,648.68 1,582.71 246
5/24/2019 11 AM EDT 1,648.37 1,582.68 245
5/24/2019 12 PM EDT 1,648.08 1,582.67 242
5/24/2019 1 PM EDT 1,647.79 1,582.70 240
5/24/2019 2 PM EDT 1,647.51 1,582.70 237
5/24/2019 3 PM EDT 1,648.42 1,582.75 240
5/24/2019 4 PM EDT 1,649.29 1,583.65 248
5/24/2019 5 PM EDT 1,648.65 1,585.33 1,718
5/24/2019 6 PM EDT 1,647.96 1,585.35 1,765
5/24/2019 7 PM EDT 1,647.24 1,585.33 1,759
5/24/2019 8 PM EDT 1,648.46 1,582.78 282
5/24/2019 9 PM EDT 1,649.64 1,582.82 249
5/24/2019 10 PM EDT 1,649.21 1,582.69 252
5/24/2019 11 PM EDT 1,648.94 1,582.70 250
5/25/2019 12 AM EDT 1,648.70 1,582.70 247
5/25/2019 1 AM EDT 1,648.42 1,582.70 245
5/25/2019 2 AM EDT 1,648.11 1,583.04 242
5/25/2019 3 AM EDT 1,649.30 1,583.08 246
5/25/2019 4 AM EDT 1,649.15 1,583.09 250
5/25/2019 5 AM EDT 1,648.90 1,583.07 250
5/25/2019 6 AM EDT 1,648.61 1,583.06 246
5/25/2019 7 AM EDT 1,648.31 1,582.82 245
5/25/2019 8 AM EDT 1,648.05 1,583.03 241
5/25/2019 9 AM EDT 1,647.77 1,582.83 240
5/25/2019 10 AM EDT 1,647.51 1,582.83 236
5/25/2019 11 AM EDT 1,647.23 1,583.00 235
5/25/2019 12 PM EDT 1,648.32 1,584.02 238
5/25/2019 1 PM EDT 1,647.65 1,586.28 1,702
5/25/2019 2 PM EDT 1,646.96 1,586.75 2,738
5/25/2019 3 PM EDT 1,646.34 1,586.50 2,691
5/25/2019 4 PM EDT 1,646.18 1,586.14 2,585
5/25/2019 5 PM EDT 1,646.17 1,585.21 2,578
5/25/2019 6 PM EDT 1,645.80 1,584.66 1,612
5/25/2019 7 PM EDT 1,647.36 1,582.39 255
5/25/2019 8 PM EDT 1,648.83 1,583.00 241
5/25/2019 9 PM EDT 1,648.68 1,582.77 245
5/25/2019 10 PM EDT 1,648.45 1,582.54 245
5/25/2019 11 PM EDT 1,648.15 1,582.54 243
5/26/2019 12 AM EDT 1,647.89 1,582.55 240
5/26/2019 1 AM EDT 1,649.09 1,582.63 244
5/26/2019 2 AM EDT 1,648.96 1,582.59 250
5/26/2019 3 AM EDT 1,648.68 1,582.58 247
5/26/2019 4 AM EDT 1,648.39 1,582.57 245
5/26/2019 5 AM EDT 1,648.14 1,582.65 242
5/26/2019 6 AM EDT 1,647.89 1,582.63 240
5/26/2019 7 AM EDT 1,649.09 1,582.66 244
5/26/2019 8 AM EDT 1,648.96 1,582.66 250
5/26/2019 9 AM EDT 1,648.68 1,582.65 247
5/26/2019 10 AM EDT 1,648.39 1,582.57 245
5/26/2019 11 AM EDT 1,648.13 1,582.54 242
5/26/2019 12 PM EDT 1,647.89 1,582.45 240
5/26/2019 1 PM EDT 1,649.08 1,582.56 244
5/26/2019 2 PM EDT 1,648.94 1,582.60 250
5/26/2019 3 PM EDT 1,648.65 1,582.53 247
5/26/2019 4 PM EDT 1,648.37 1,582.60 245
5/26/2019 5 PM EDT 1,648.12 1,582.53 242
5/26/2019 6 PM EDT 1,649.33 1,582.58 246

Elevations are in feet above sea level. Discharges are in cubic feet per second and are reported at the end of the hour.